Time;durP1;ratioP1;P1;durP2;ratioP2;P2;SDS_P1;SDS_P2;PMS_P1;PMS_P2;Temp;Humidity;BMP_temperature;BMP_pressure;BME280_temperature;BME280_humidity;BME280_pressure;Samples;Min_cycle;Max_cycle;Signal;HPM_P1;HPM_P2
2021/04/19 00:01:58;;;;;;;18.77;12.38;;;6.40;69.30;;;;;;5055566;28;20056;-63
2021/04/19 00:04:26;;;;;;;20.83;12.60;;;6.30;69.30;;;;;;5061142;28;20559;-63
2021/04/19 00:06:53;;;;;;;20.30;12.90;;;6.30;69.40;;;;;;5063711;28;20029;-62
2021/04/19 00:09:19;;;;;;;20.60;13.35;;;6.20;69.30;;;;;;5058225;28;20028;-62
2021/04/19 00:11:52;;;;;;;20.38;11.93;;;6.20;69.30;;;;;;5057449;28;20037;-63
2021/04/19 00:14:17;;;;;;;19.92;12.27;;;6.20;69.40;;;;;;5058785;28;20037;-64
2021/04/19 00:16:48;;;;;;;20.27;12.27;;;6.10;69.20;;;;;;5057544;28;20043;-63
2021/04/19 00:19:15;;;;;;;21.40;11.93;;;6.10;69.30;;;;;;5056402;28;20044;-63
2021/04/19 00:21:43;;;;;;;20.65;12.77;;;6.10;69.30;;;;;;5061060;28;20025;-62
2021/04/19 00:24:11;;;;;;;20.17;11.80;;;6.00;69.40;;;;;;5063606;28;20025;-63
2021/04/19 00:26:36;;;;;;;22.10;12.48;;;5.90;69.40;;;;;;5061548;28;20033;-63
2021/04/19 00:29:05;;;;;;;22.73;12.15;;;5.90;69.30;;;;;;5060226;28;20801;-62
2021/04/19 00:31:33;;;;;;;20.83;12.10;;;5.90;69.30;;;;;;5064313;28;20628;-62
2021/04/19 00:34:06;;;;;;;19.77;12.13;;;5.80;69.10;;;;;;5059895;28;20036;-63
2021/04/19 00:36:34;;;;;;;19.83;11.95;;;5.80;69.20;;;;;;5059854;28;20028;-63
2021/04/19 00:39:00;;;;;;;18.98;11.80;;;5.80;69.10;;;;;;5061413;28;20674;-63
2021/04/19 00:41:25;;;;;;;18.52;10.98;;;5.80;69.10;;;;;;5056755;28;20040;-62
2021/04/19 00:43:56;;;;;;;19.95;11.30;;;5.70;68.90;;;;;;5058790;28;20044;-63
2021/04/19 00:46:24;;;;;;;20.35;11.25;;;5.70;69.70;;;;;;5057285;28;20036;-64
2021/04/19 00:48:50;;;;;;;20.17;12.13;;;5.70;68.90;;;;;;5062685;28;20094;-63
2021/04/19 00:51:15;;;;;;;21.65;11.88;;;5.60;68.70;;;;;;5062804;28;20505;-63
2021/04/19 00:53:46;;;;;;;20.67;11.75;;;5.60;68.70;;;;;;5058325;28;20071;-63
2021/04/19 00:56:14;;;;;;;21.77;12.23;;;5.50;68.90;;;;;;5057848;28;20048;-62
2021/04/19 00:58:45;;;;;;;19.13;11.50;;;5.50;69.10;;;;;;5059247;28;20033;-63
2021/04/19 01:01:14;;;;;;;19.65;11.75;;;5.30;69.00;;;;;;5052000;28;20025;-63
2021/04/19 01:03:40;;;;;;;20.85;12.05;;;5.30;69.30;;;;;;5050253;28;20543;-62
2021/04/19 01:06:07;;;;;;;22.00;12.15;;;5.30;69.20;;;;;;5076681;28;20039;-63
2021/04/19 01:08:34;;;;;;;22.55;13.30;;;5.20;69.20;;;;;;5062414;28;20074;-63
2021/04/19 01:10:59;;;;;;;21.20;12.55;;;5.20;69.30;;;;;;5056621;28;20029;-63
2021/04/19 01:13:27;;;;;;;21.10;12.73;;;5.20;69.50;;;;;;5059689;28;20405;-63
2021/04/19 01:15:57;;;;;;;26.85;13.48;;;5.10;69.50;;;;;;5058775;28;20033;-63
2021/04/19 01:18:25;;;;;;;24.60;13.30;;;5.10;69.80;;;;;;5059859;28;20032;-63
2021/04/19 01:20:53;;;;;;;22.38;12.95;;;5.00;70.00;;;;;;5058587;28;20029;-63
2021/04/19 01:23:22;;;;;;;21.77;12.38;;;5.00;70.30;;;;;;5066716;28;20389;-63
2021/04/19 01:25:48;;;;;;;22.45;12.95;;;4.90;70.50;;;;;;5066311;28;20553;-63
2021/04/19 01:28:14;;;;;;;23.35;12.32;;;4.90;70.60;;;;;;5068014;28;20131;-63
2021/04/19 01:30:52;;;;;;;23.25;13.50;;;4.90;70.80;;;;;;5066499;28;20067;-63
2021/04/19 01:33:19;;;;;;;25.42;13.70;;;4.80;71.50;;;;;;5068185;28;20060;-63
2021/04/19 01:35:47;;;;;;;24.15;13.23;;;4.80;71.40;;;;;;5068324;28;20067;-63
2021/04/19 01:38:19;;;;;;;24.23;12.95;;;4.80;71.90;;;;;;5067945;28;20082;-63
2021/04/19 01:40:47;;;;;;;22.00;12.60;;;4.70;72.10;;;;;;5063995;28;20110;-62
2021/04/19 01:43:12;;;;;;;26.27;13.27;;;4.70;72.00;;;;;;5062930;28;20025;-63
2021/04/19 01:45:41;;;;;;;23.40;13.30;;;4.70;72.20;;;;;;5058555;28;20375;-63
2021/04/19 01:48:09;;;;;;;23.63;12.80;;;4.70;72.20;;;;;;5062297;28;20504;-62
2021/04/19 01:50:38;;;;;;;20.55;12.32;;;4.70;72.20;;;;;;5065208;28;20622;-63
2021/04/19 01:53:04;;;;;;;22.00;12.70;;;4.70;72.20;;;;;;5066584;28;20075;-63
2021/04/19 01:55:33;;;;;;;20.42;11.70;;;4.80;72.10;;;;;;5066357;28;20613;-63
2021/04/19 01:58:09;;;;;;;19.58;12.25;;;4.80;72.10;;;;;;5066791;28;20390;-64
2021/04/19 02:00:39;;;;;;;19.73;11.77;;;4.90;72.20;;;;;;5057409;28;20135;-63
2021/04/19 02:03:15;;;;;;;22.95;12.27;;;4.90;71.80;;;;;;5066525;28;20063;-63
2021/04/19 02:06:03;;;;;;;23.98;13.15;;;4.90;71.80;;;;;;5068722;28;20060;-62
2021/04/19 02:08:47;;;;;;;21.80;12.10;;;4.90;71.90;;;;;;5064325;28;20097;-63
2021/04/19 02:11:30;;;;;;;23.27;11.93;;;4.90;71.30;;;;;;5060315;28;20037;-63
2021/04/19 02:14:15;;;;;;;19.25;11.70;;;4.90;71.90;;;;;;5064128;28;20116;-62
2021/04/19 02:17:13;;;;;;;20.88;11.95;;;4.90;71.50;;;;;;5057776;28;20124;-63
2021/04/19 02:20:01;;;;;;;21.92;11.88;;;5.00;71.40;;;;;;5063369;28;20086;-62
2021/04/19 02:22:42;;;;;;;21.55;11.27;;;5.00;71.30;;;;;;5065056;28;20115;-63
2021/04/19 02:25:21;;;;;;;20.35;12.10;;;5.00;71.00;;;;;;5063176;28;20114;-63
2021/04/19 02:27:54;;;;;;;22.58;12.38;;;5.00;71.30;;;;;;5061804;28;20124;-64
2021/04/19 02:30:22;;;;;;;16.67;11.38;;;5.00;70.90;;;;;;5061650;28;20029;-63
2021/04/19 02:32:56;;;;;;;20.25;11.43;;;5.00;70.90;;;;;;5066534;28;20098;-63
2021/04/19 02:35:28;;;;;;;20.42;11.85;;;5.00;71.00;;;;;;5062902;28;20025;-62
2021/04/19 02:37:59;;;;;;;22.92;11.88;;;5.10;71.10;;;;;;5062448;28;20404;-64
2021/04/19 02:40:31;;;;;;;20.35;11.52;;;5.10;70.90;;;;;;5064286;28;20028;-63
2021/04/19 02:43:00;;;;;;;20.83;12.00;;;5.10;71.00;;;;;;5066554;28;20057;-62
2021/04/19 02:45:25;;;;;;;20.67;12.55;;;5.10;70.90;;;;;;5060002;28;20036;-63
2021/04/19 02:47:51;;;;;;;22.10;12.07;;;5.10;71.00;;;;;;5059386;28;20412;-62
2021/04/19 02:50:20;;;;;;;22.50;12.25;;;5.00;71.10;;;;;;5058829;28;20505;-62
2021/04/19 02:52:51;;;;;;;22.55;13.38;;;5.00;71.20;;;;;;5062563;28;20032;-63
2021/04/19 02:55:22;;;;;;;20.63;12.75;;;5.00;71.40;;;;;;5062656;28;20580;-63
2021/04/19 02:58:03;;;;;;;21.38;12.15;;;4.90;71.40;;;;;;5058910;28;20068;-63
2021/04/19 03:00:35;;;;;;;21.15;12.48;;;4.90;71.70;;;;;;5062639;28;20032;-63
2021/04/19 03:03:08;;;;;;;23.83;12.45;;;4.90;71.70;;;;;;5065689;28;20467;-62
2021/04/19 03:05:37;;;;;;;21.55;12.40;;;4.90;71.90;;;;;;5066336;28;20036;-63
2021/04/19 03:08:06;;;;;;;24.63;14.10;;;4.90;71.90;;;;;;5065783;28;20090;-64
2021/04/19 03:10:38;;;;;;;24.73;13.50;;;4.90;72.00;;;;;;5058630;28;20059;-63
2021/04/19 03:13:07;;;;;;;19.63;12.82;;;4.90;72.20;;;;;;5060936;28;20025;-62
2021/04/19 03:15:37;;;;;;;26.25;14.10;;;4.90;72.30;;;;;;5058594;28;20021;-63
2021/04/19 03:18:06;;;;;;;25.55;14.15;;;4.90;72.40;;;;;;5060664;28;20032;-64
2021/04/19 03:21:03;;;;;;;23.25;14.13;;;4.90;72.50;;;;;;5066517;28;20037;-62
2021/04/19 03:23:35;;;;;;;26.40;14.35;;;4.90;73.10;;;;;;5066205;28;20028;-64
2021/04/19 03:26:02;;;;;;;23.80;14.00;;;4.90;72.60;;;;;;5065036;28;20040;-63
2021/04/19 03:28:31;;;;;;;24.25;13.38;;;4.90;72.50;;;;;;5064191;28;20025;-62
2021/04/19 03:31:00;;;;;;;25.98;13.50;;;4.90;72.60;;;;;;5059903;28;20044;-63
2021/04/19 03:33:26;;;;;;;24.83;13.35;;;4.90;72.50;;;;;;5061177;28;20044;-62
2021/04/19 03:35:52;;;;;;;22.25;13.25;;;4.90;72.50;;;;;;5056251;28;20656;-63
2021/04/19 03:38:26;;;;;;;26.02;13.90;;;4.90;72.50;;;;;;5053387;28;20646;-62
2021/04/19 03:40:53;;;;;;;21.75;12.65;;;4.90;72.40;;;;;;5057743;28;20103;-64
2021/04/19 03:43:22;;;;;;;20.85;12.55;;;5.00;73.20;;;;;;5061795;28;20040;-62
2021/04/19 03:45:53;;;;;;;24.63;13.10;;;5.00;72.30;;;;;;5080034;28;20033;-63
2021/04/19 03:48:22;;;;;;;21.20;12.98;;;5.00;72.30;;;;;;5059091;28;20029;-62
2021/04/19 03:50:57;;;;;;;24.23;13.95;;;5.10;72.20;;;;;;5056739;28;20040;-62
2021/04/19 03:53:27;;;;;;;23.45;12.88;;;5.10;72.10;;;;;;5053738;28;20470;-62
2021/04/19 03:55:57;;;;;;;26.42;13.00;;;5.10;72.00;;;;;;5055634;28;20537;-63
2021/04/19 03:58:30;;;;;;;23.52;13.52;;;5.10;71.90;;;;;;5058597;28;20036;-62
2021/04/19 04:00:59;;;;;;;23.52;14.05;;;5.10;72.00;;;;;;5056016;28;20060;-62
2021/04/19 04:03:25;;;;;;;21.40;12.90;;;5.20;72.00;;;;;;5058174;28;20040;-63
2021/04/19 04:05:56;;;;;;;21.42;13.60;;;5.20;71.90;;;;;;5061630;28;20032;-64
2021/04/19 04:08:25;;;;;;;25.80;13.85;;;5.10;71.90;;;;;;5061467;28;20033;-63
2021/04/19 04:10:52;;;;;;;23.02;13.85;;;5.20;71.90;;;;;;5056682;28;20040;-64
2021/04/19 04:13:20;;;;;;;21.13;13.40;;;5.20;71.80;;;;;;5059690;28;20036;-63
2021/04/19 04:15:59;;;;;;;25.33;13.38;;;5.20;71.90;;;;;;5059337;28;20036;-64
2021/04/19 04:18:26;;;;;;;20.17;13.50;;;5.20;72.00;;;;;;5058980;28;20032;-64
2021/04/19 04:20:56;;;;;;;23.73;14.00;;;5.30;71.90;;;;;;5058952;28;20035;-62
2021/04/19 04:23:23;;;;;;;22.33;13.93;;;5.20;71.90;;;;;;5059724;28;20032;-64
2021/04/19 04:25:51;;;;;;;27.52;15.25;;;5.20;72.00;;;;;;5055417;28;20119;-64
2021/04/19 04:28:17;;;;;;;24.55;14.75;;;5.30;72.00;;;;;;5046878;28;20037;-63
2021/04/19 04:30:45;;;;;;;22.83;14.65;;;5.30;72.20;;;;;;5059973;28;20051;-62
2021/04/19 04:33:10;;;;;;;24.13;14.55;;;5.20;72.10;;;;;;5061639;28;20102;-62
2021/04/19 04:35:37;;;;;;;28.80;16.17;;;5.20;72.20;;;;;;5059143;28;20456;-63
2021/04/19 04:38:05;;;;;;;25.92;15.75;;;5.20;72.40;;;;;;5063848;28;20044;-64
2021/04/19 04:40:32;;;;;;;27.63;15.30;;;5.20;72.50;;;;;;5064251;28;20033;-63
2021/04/19 04:43:23;;;;;;;26.35;14.23;;;5.20;72.60;;;;;;5065477;28;20111;-63
2021/04/19 04:45:54;;;;;;;23.15;13.18;;;5.20;73.30;;;;;;5065943;28;20512;-64
2021/04/19 04:48:27;;;;;;;27.38;17.15;;;5.20;72.70;;;;;;5065904;28;20037;-64
2021/04/19 04:51:08;;;;;;;26.88;15.50;;;5.20;73.70;;;;;;5065789;28;20060;-63
2021/04/19 04:53:53;;;;;;;28.20;16.75;;;5.20;73.10;;;;;;5067240;28;20043;-63
2021/04/19 04:56:23;;;;;;;27.40;16.27;;;5.30;72.90;;;;;;5069377;28;20033;-63
2021/04/19 04:58:53;;;;;;;27.35;16.65;;;5.30;72.60;;;;;;5068107;28;20139;-62
2021/04/19 05:01:22;;;;;;;25.80;14.90;;;5.30;72.60;;;;;;5068385;28;20037;-62
2021/04/19 05:03:51;;;;;;;22.13;15.60;;;5.40;72.50;;;;;;5062000;28;20054;-62
2021/04/19 05:06:19;;;;;;;29.67;16.60;;;5.40;73.30;;;;;;5069230;28;20032;-63
2021/04/19 05:08:46;;;;;;;27.15;15.98;;;5.40;72.40;;;;;;5068523;28;20032;-63
2021/04/19 05:11:15;;;;;;;24.85;14.80;;;5.40;72.20;;;;;;5064262;28;20509;-63
2021/04/19 05:13:43;;;;;;;29.23;14.45;;;5.40;72.20;;;;;;5068916;28;20052;-63
2021/04/19 05:16:10;;;;;;;26.98;15.02;;;5.40;72.40;;;;;;5067410;28;20031;-63
2021/04/19 05:18:36;;;;;;;27.02;14.38;;;5.50;72.40;;;;;;5068658;28;20064;-63
2021/04/19 05:21:04;;;;;;;22.85;14.15;;;5.50;72.60;;;;;;5068818;28;20064;-63
2021/04/19 05:23:37;;;;;;;24.40;14.90;;;5.40;72.60;;;;;;5067243;28;20313;-63
2021/04/19 05:26:07;;;;;;;28.85;14.23;;;5.50;72.90;;;;;;5067928;28;20036;-62
2021/04/19 05:28:40;;;;;;;34.33;14.45;;;5.50;73.00;;;;;;5068595;28;20033;-63
2021/04/19 05:31:12;;;;;;;34.05;15.02;;;5.60;73.00;;;;;;5066781;28;20044;-63
2021/04/19 05:33:38;;;;;;;32.70;15.35;;;5.60;73.00;;;;;;5069043;28;22137;-63
2021/04/19 05:36:14;;;;;;;28.83;16.17;;;5.60;72.90;;;;;;5068731;28;20509;-63
2021/04/19 05:38:42;;;;;;;28.15;15.43;;;5.60;73.40;;;;;;5068287;28;20021;-62
2021/04/19 05:41:13;;;;;;;29.00;15.95;;;5.60;73.30;;;;;;5068884;28;20520;-63
2021/04/19 05:43:43;;;;;;;29.40;15.80;;;5.60;73.30;;;;;;5066598;28;20122;-63
2021/04/19 05:46:15;;;;;;;35.28;16.30;;;5.60;73.60;;;;;;5067193;28;20033;-63
2021/04/19 05:48:41;;;;;;;28.55;16.15;;;5.60;73.60;;;;;;5067988;28;20507;-62
2021/04/19 05:51:25;;;;;;;28.88;15.75;;;5.60;73.60;;;;;;5068114;28;20040;-63
2021/04/19 05:53:57;;;;;;;28.63;16.23;;;5.60;73.90;;;;;;5067300;28;20108;-63
2021/04/19 05:57:04;;;;;;;31.63;16.95;;;5.70;73.90;;;;;;5067997;28;20025;-62
2021/04/19 05:59:52;;;;;;;29.00;16.10;;;5.70;74.60;;;;;;5045068;28;20401;-62
2021/04/19 06:02:39;;;;;;;29.10;15.63;;;5.70;74.20;;;;;;5059723;28;20028;-62
2021/04/19 06:05:10;;;;;;;30.05;15.98;;;5.80;74.00;;;;;;5067446;28;20043;-63
2021/04/19 06:07:43;;;;;;;31.60;16.00;;;5.80;74.60;;;;;;5068907;28;20039;-63
2021/04/19 06:10:19;;;;;;;25.52;16.27;;;5.90;74.10;;;;;;5065585;28;20467;-63
2021/04/19 06:12:53;;;;;;;26.35;15.10;;;5.90;74.30;;;;;;5062495;28;20040;-63
2021/04/19 06:15:22;;;;;;;;;;;5.90;74.10;;;;;;5068702;28;20056;-63
2021/04/19 06:17:49;;;;;;;23.88;14.18;;;6.00;74.80;;;;;;5068155;28;19919;-63
2021/04/19 06:20:17;;;;;;;27.60;15.05;;;6.00;73.60;;;;;;5063582;28;20623;-61
2021/04/19 06:22:54;;;;;;;31.77;16.77;;;6.00;73.60;;;;;;5066912;28;20718;-63
2021/04/19 06:25:22;;;;;;;42.10;17.10;;;6.10;74.00;;;;;;5060004;28;20068;-63
2021/04/19 06:27:58;;;;;;;32.15;15.68;;;6.10;73.70;;;;;;5068188;28;20029;-63
2021/04/19 06:30:30;;;;;;;27.40;15.55;;;6.20;73.70;;;;;;5066948;28;20116;-63
2021/04/19 06:33:00;;;;;;;27.98;15.35;;;6.30;73.60;;;;;;5067642;28;20055;-63
2021/04/19 06:35:26;;;;;;;24.65;15.43;;;6.40;73.60;;;;;;5065440;28;20033;-63
2021/04/19 06:37:57;;;;;;;25.52;16.17;;;6.40;73.50;;;;;;5066338;28;20370;-64
2021/04/19 06:40:26;;;;;;;24.05;14.88;;;6.50;73.70;;;;;;5067110;28;20036;-63
2021/04/19 06:42:56;;;;;;;27.45;16.15;;;6.60;73.60;;;;;;5060057;28;20028;-63
2021/04/19 06:45:22;;;;;;;26.17;15.82;;;6.60;73.60;;;;;;5067116;28;20029;-63
2021/04/19 06:47:48;;;;;;;25.88;14.75;;;6.60;73.50;;;;;;5062494;28;20119;-63
2021/04/19 06:50:16;;;;;;;26.38;15.98;;;6.60;74.30;;;;;;5066643;28;20047;-63
2021/04/19 06:52:50;;;;;;;26.45;15.85;;;6.60;73.80;;;;;;5064515;28;20041;-63
2021/04/19 06:55:20;;;;;;;25.35;16.08;;;6.60;73.70;;;;;;5066260;28;20064;-63
2021/04/19 06:57:51;;;;;;;26.60;16.45;;;6.70;73.90;;;;;;5065706;28;20028;-63
2021/04/19 07:00:18;;;;;;;27.95;15.50;;;6.70;74.00;;;;;;5065497;28;20255;-63
2021/04/19 07:02:51;;;;;;;24.42;15.45;;;6.70;73.90;;;;;;5055165;28;20083;-63
2021/04/19 07:05:27;;;;;;;26.10;16.15;;;6.80;74.00;;;;;;5064481;28;20028;-63
2021/04/19 07:08:00;;;;;;;26.45;15.85;;;6.80;74.10;;;;;;5061975;28;20068;-63
2021/04/19 07:10:28;;;;;;;23.13;14.40;;;6.90;74.00;;;;;;5059343;28;20033;-63
2021/04/19 07:12:57;;;;;;;25.30;15.45;;;7.00;73.80;;;;;;5064882;28;20488;-64
2021/04/19 07:15:32;;;;;;;23.27;14.55;;;7.10;73.70;;;;;;5065862;28;20455;-63
2021/04/19 07:17:58;;;;;;;26.77;15.40;;;7.20;73.70;;;;;;5065876;28;20060;-63
2021/04/19 07:20:28;;;;;;;24.60;15.45;;;7.30;73.50;;;;;;5066140;28;20052;-64
2021/04/19 07:22:54;;;;;;;23.85;14.93;;;7.40;73.30;;;;;;5064871;28;20115;-63
2021/04/19 07:25:24;;;;;;;22.70;14.45;;;7.50;73.20;;;;;;5064817;28;20120;-63
2021/04/19 07:27:53;;;;;;;27.30;15.88;;;7.60;73.10;;;;;;5066720;28;20101;-64
2021/04/19 07:30:21;;;;;;;26.48;15.30;;;7.70;73.10;;;;;;5064221;28;20112;-64
2021/04/19 07:32:46;;;;;;;28.23;16.13;;;7.80;72.80;;;;;;5064836;28;20497;-63
2021/04/19 07:35:13;;;;;;;25.38;15.55;;;7.90;72.60;;;;;;5064382;28;20071;-63
2021/04/19 07:37:56;;;;;;;23.63;14.40;;;7.90;72.50;;;;;;5066757;28;20135;-64
2021/04/19 07:40:51;;;;;;;28.23;14.55;;;8.00;72.50;;;;;;5065536;28;20116;-63
2021/04/19 07:43:23;;;;;;;25.38;14.95;;;8.10;72.50;;;;;;5063751;28;20028;-63
2021/04/19 07:46:09;;;;;;;31.83;15.25;;;8.20;72.10;;;;;;5066875;28;20024;-63
2021/04/19 07:48:40;;;;;;;25.33;15.57;;;8.30;72.10;;;;;;5064931;28;20755;-63
2021/04/19 07:51:23;;;;;;;26.00;14.82;;;8.40;71.80;;;;;;5062234;28;20045;-63
2021/04/19 07:53:50;;;;;;;24.33;14.88;;;8.50;71.60;;;;;;5066379;28;20059;-63
2021/04/19 07:56:17;;;;;;;24.92;14.95;;;8.50;72.30;;;;;;5064779;28;20028;-64
2021/04/19 07:58:46;;;;;;;23.60;14.90;;;8.60;72.40;;;;;;5064931;28;20041;-64
2021/04/19 08:01:11;;;;;;;26.17;15.73;;;8.70;72.50;;;;;;5066092;28;20033;-64
2021/04/19 08:03:41;;;;;;;28.15;15.57;;;8.80;71.60;;;;;;5063975;28;20040;-63
2021/04/19 08:06:19;;;;;;;25.73;15.73;;;8.90;71.40;;;;;;5064946;28;20051;-63
2021/04/19 08:08:45;;;;;;;25.30;15.57;;;8.90;71.30;;;;;;5065860;28;20183;-64
2021/04/19 08:11:18;;;;;;;25.17;15.75;;;9.00;71.20;;;;;;5057986;28;20066;-63
2021/04/19 08:13:45;;;;;;;24.92;15.38;;;9.10;71.20;;;;;;5065744;28;20025;-64
2021/04/19 08:16:23;;;;;;;24.42;14.88;;;9.20;71.10;;;;;;5064620;28;20476;-62
2021/04/19 08:19:01;;;;;;;22.35;15.07;;;9.30;70.80;;;;;;5064964;28;20040;-64
2021/04/19 08:21:33;;;;;;;24.90;16.38;;;9.40;70.60;;;;;;5065311;28;20029;-64
2021/04/19 08:24:15;;;;;;;24.67;16.02;;;9.50;70.20;;;;;;5065560;28;20067;-64
2021/04/19 08:26:59;;;;;;;22.70;14.48;;;9.60;69.90;;;;;;5065356;28;20412;-63
2021/04/19 08:29:42;;;;;;;28.48;16.85;;;9.70;69.70;;;;;;5063751;28;20148;-64
2021/04/19 08:32:09;;;;;;;27.45;16.90;;;9.70;70.40;;;;;;5063872;28;20032;-64
2021/04/19 08:34:41;;;;;;;24.50;16.48;;;9.80;69.30;;;;;;5065100;28;20039;-63
2021/04/19 08:37:09;;;;;;;24.42;16.33;;;9.90;68.70;;;;;;5064749;28;20044;-64
2021/04/19 08:39:38;;;;;;;23.30;15.93;;;10.00;68.20;;;;;;5065155;28;20090;-64
2021/04/19 08:42:05;;;;;;;24.17;16.15;;;10.00;67.80;;;;;;5063729;28;20116;-64
2021/04/19 08:44:37;;;;;;;24.17;15.63;;;10.00;68.10;;;;;;5062959;28;20037;-64
2021/04/19 08:47:07;;;;;;;22.98;15.63;;;10.10;67.80;;;;;;5063636;28;20032;-63
2021/04/19 08:49:33;;;;;;;24.52;16.15;;;10.20;68.00;;;;;;5061908;28;20048;-64
2021/04/19 08:52:01;;;;;;;21.90;15.38;;;10.30;67.60;;;;;;5063854;28;20107;-64
2021/04/19 08:54:30;;;;;;;23.38;15.85;;;10.40;67.00;;;;;;5062770;28;20083;-63
2021/04/19 08:56:58;;;;;;;24.45;16.23;;;10.40;66.80;;;;;;5063467;28;20090;-64
2021/04/19 08:59:26;;;;;;;22.60;15.50;;;10.50;66.20;;;;;;5061401;28;20036;-64
2021/04/19 09:01:55;;;;;;;23.48;15.80;;;10.60;66.00;;;;;;5066412;28;20051;-64
2021/04/19 09:04:27;;;;;;;24.33;15.63;;;10.70;65.80;;;;;;5063578;28;20063;-64
2021/04/19 09:06:58;;;;;;;22.40;14.93;;;10.80;65.30;;;;;;5063860;28;20036;-64
2021/04/19 09:09:36;;;;;;;21.40;14.38;;;10.80;65.20;;;;;;5064963;28;20032;-64
2021/04/19 09:12:21;;;;;;;23.55;15.57;;;10.90;65.00;;;;;;5060125;28;20043;-64
2021/04/19 09:15:09;;;;;;;22.80;15.25;;;11.00;63.70;;;;;;5065084;28;20040;-64
2021/04/19 09:17:37;;;;;;;22.52;15.43;;;11.00;63.70;;;;;;5065037;28;20112;-64
2021/04/19 09:20:05;;;;;;;19.88;14.95;;;11.00;63.40;;;;;;5063004;28;20067;-64
2021/04/19 09:22:31;;;;;;;22.45;15.35;;;11.00;63.60;;;;;;5062359;28;20028;-64
2021/04/19 09:25:03;;;;;;;21.05;14.73;;;11.10;63.40;;;;;;5065839;28;20401;-64
2021/04/19 09:27:44;;;;;;;23.38;15.45;;;11.10;63.90;;;;;;5065457;28;20441;-64
2021/04/19 09:30:21;;;;;;;20.10;14.27;;;11.20;64.40;;;;;;5064291;28;20036;-64
2021/04/19 09:32:47;;;;;;;22.38;15.57;;;11.20;64.10;;;;;;5063590;28;20036;-64
2021/04/19 09:38:11;;;;;;;26.90;15.00;;;11.30;63.10;;;;;;5064206;28;20037;-64
2021/04/19 09:40:55;;;;;;;19.83;14.32;;;11.40;63.60;;;;;;5066857;28;20039;-64
2021/04/19 09:43:30;;;;;;;22.00;14.43;;;11.40;62.80;;;;;;5066382;28;20609;-64
2021/04/19 09:46:06;;;;;;;;;;;11.50;62.90;;;;;;5070098;28;20362;-64
2021/04/19 09:48:35;;;;;;;21.48;13.27;;;11.60;61.20;;;;;;5067873;28;19916;-64
2021/04/19 09:51:11;;;;;;;18.95;13.88;;;11.60;62.60;;;;;;5066641;28;20044;-64
2021/04/19 09:53:46;;;;;;;20.08;12.90;;;11.60;62.40;;;;;;5066278;28;20450;-64
2021/04/19 09:56:12;;;;;;;17.20;12.50;;;11.70;62.50;;;;;;5066993;28;20036;-64
2021/04/19 09:58:43;;;;;;;17.05;12.40;;;11.80;62.60;;;;;;5066387;28;20528;-64
2021/04/19 10:01:12;;;;;;;18.23;12.63;;;11.90;62.40;;;;;;5067725;28;20032;-64
2021/04/19 10:03:40;;;;;;;16.65;11.60;;;12.00;62.40;;;;;;5067940;28;20405;-65
2021/04/19 10:06:14;;;;;;;17.55;12.27;;;12.10;62.50;;;;;;5065646;28;20029;-64
2021/04/19 10:08:44;;;;;;;17.08;12.15;;;12.20;61.50;;;;;;5065457;28;20036;-64
2021/04/19 10:11:13;;;;;;;18.83;12.02;;;12.40;61.30;;;;;;5063630;28;20040;-64
2021/04/19 10:13:41;;;;;;;14.45;10.82;;;12.40;60.90;;;;;;5068583;28;20020;-64
2021/04/19 10:16:14;;;;;;;16.52;11.90;;;12.50;60.30;;;;;;5065899;28;20033;-64
2021/04/19 10:18:44;;;;;;;17.10;11.32;;;12.60;58.60;;;;;;5067804;28;20029;-64
2021/04/19 10:21:26;;;;;;;18.55;11.57;;;12.60;59.60;;;;;;5059570;28;20033;-63
2021/04/19 10:23:52;;;;;;;15.38;11.55;;;12.70;58.90;;;;;;5068131;28;20064;-64
2021/04/19 10:26:27;;;;;;;15.13;10.50;;;12.80;59.50;;;;;;5068519;28;20033;-64
2021/04/19 10:28:53;;;;;;;13.63;10.20;;;12.80;59.30;;;;;;5067820;28;20033;-64
2021/04/19 10:31:20;;;;;;;13.40;10.05;;;12.90;58.70;;;;;;5067530;28;20078;-64
2021/04/19 10:33:51;;;;;;;15.25;9.98;;;13.00;58.70;;;;;;5067437;28;20056;-65
2021/04/19 10:36:17;;;;;;;13.73;9.75;;;13.00;58.40;;;;;;5067892;28;20033;-64
2021/04/19 10:38:57;;;;;;;12.73;9.55;;;13.00;58.30;;;;;;5067161;28;20028;-64
2021/04/19 10:41:39;;;;;;;13.98;10.40;;;13.10;58.00;;;;;;5067578;28;20029;-64
2021/04/19 10:44:05;;;;;;;12.63;9.52;;;13.10;57.10;;;;;;5066383;28;20025;-64
2021/04/19 10:46:39;;;;;;;12.68;9.38;;;13.20;57.50;;;;;;5067172;28;20027;-64
2021/04/19 10:49:09;;;;;;;13.20;8.57;;;13.30;57.00;;;;;;5065482;28;20055;-65
2021/04/19 10:51:36;;;;;;;11.13;8.77;;;13.30;57.00;;;;;;5066008;28;20021;-64
2021/04/19 10:54:08;;;;;;;12.15;8.38;;;13.40;57.00;;;;;;5066769;28;20032;-64
2021/04/19 10:56:38;;;;;;;11.25;8.48;;;13.50;56.70;;;;;;5066966;28;20112;-64
2021/04/19 10:59:11;;;;;;;11.32;8.60;;;13.60;56.60;;;;;;5065831;28;20040;-64
2021/04/19 11:01:41;;;;;;;12.43;8.73;;;13.70;56.00;;;;;;5067560;28;20389;-64
2021/04/19 11:04:10;;;;;;;11.45;8.35;;;13.80;56.10;;;;;;5059595;28;20459;-65
2021/04/19 11:06:41;;;;;;;10.95;7.65;;;13.80;55.10;;;;;;5056991;28;20029;-65
2021/04/19 11:09:19;;;;;;;8.82;7.05;;;13.90;54.00;;;;;;5063078;28;20043;-65
2021/04/19 11:11:48;;;;;;;9.65;7.03;;;13.90;53.60;;;;;;5060436;28;20497;-64
2021/04/19 11:14:16;;;;;;;15.30;8.38;;;13.90;54.20;;;;;;5066140;28;20029;-64
2021/04/19 11:17:06;;;;;;;8.85;6.68;;;14.00;53.40;;;;;;5065020;28;20024;-64
2021/04/19 11:19:42;;;;;;;9.52;7.38;;;14.00;53.40;;;;;;5066200;28;20037;-64
2021/04/19 11:22:32;;;;;;;13.23;7.13;;;14.00;53.90;;;;;;5066083;28;20047;-65
2021/04/19 11:25:25;;;;;;;9.07;6.97;;;14.10;52.70;;;;;;5065878;28;20043;-65
2021/04/19 11:28:13;;;;;;;11.60;7.38;;;14.20;52.50;;;;;;5066080;28;20036;-65
2021/04/19 11:30:41;;;;;;;9.25;7.00;;;14.20;52.70;;;;;;5064287;28;20078;-65
2021/04/19 11:33:22;;;;;;;7.68;5.90;;;14.20;53.20;;;;;;5065452;28;20056;-64
2021/04/19 11:35:56;;;;;;;6.50;5.50;;;14.30;52.90;;;;;;5065094;28;20029;-65
2021/04/19 11:38:25;;;;;;;8.73;6.38;;;14.40;52.90;;;;;;5063558;28;20370;-65
2021/04/19 11:40:57;;;;;;;10.40;6.35;;;14.40;52.40;;;;;;5066390;28;20369;-65
2021/04/19 11:43:28;;;;;;;10.18;7.03;;;14.50;52.10;;;;;;5065508;28;20052;-64
2021/04/19 11:46:11;;;;;;;10.57;7.00;;;14.60;52.40;;;;;;5058551;28;20029;-64
2021/04/19 11:48:48;;;;;;;10.77;7.22;;;14.60;50.50;;;;;;5066463;28;20049;-65
2021/04/19 11:51:18;;;;;;;9.18;6.70;;;14.70;50.50;;;;;;5065881;28;20630;-64
2021/04/19 11:53:47;;;;;;;10.75;7.10;;;14.60;50.00;;;;;;5064964;28;20032;-64
2021/04/19 11:56:16;;;;;;;9.73;6.82;;;14.60;50.30;;;;;;5064354;28;20481;-64
2021/04/19 11:58:47;;;;;;;10.45;7.00;;;14.60;50.30;;;;;;5065235;28;20040;-65
2021/04/19 12:01:18;;;;;;;7.88;6.43;;;14.50;50.00;;;;;;5063541;28;20055;-65
2021/04/19 12:03:48;;;;;;;8.15;6.57;;;14.60;50.30;;;;;;5065750;28;20025;-64
2021/04/19 12:06:16;;;;;;;9.30;6.88;;;14.60;50.80;;;;;;5065905;28;20078;-65
2021/04/19 12:08:44;;;;;;;9.35;6.68;;;14.70;50.20;;;;;;5064398;28;20041;-65
2021/04/19 12:11:17;;;;;;;9.25;7.20;;;14.80;51.00;;;;;;5074724;28;20044;-64
2021/04/19 12:13:45;;;;;;;8.65;6.32;;;14.80;50.40;;;;;;5064996;28;20588;-64
2021/04/19 12:16:12;;;;;;;8.45;6.35;;;14.90;50.10;;;;;;5066023;28;20119;-64
2021/04/19 12:18:44;;;;;;;8.25;6.20;;;15.00;49.30;;;;;;5064310;28;20044;-64
2021/04/19 12:21:17;;;;;;;8.48;6.72;;;15.00;49.80;;;;;;5065804;28;20032;-64
2021/04/19 12:23:45;;;;;;;7.82;6.63;;;15.00;49.40;;;;;;5063898;28;20032;-65
2021/04/19 12:26:14;;;;;;;10.35;6.40;;;15.00;49.00;;;;;;5063512;28;20543;-65
2021/04/19 12:28:39;;;;;;;8.80;6.80;;;15.00;48.10;;;;;;5065263;28;20028;-65
2021/04/19 12:31:07;;;;;;;8.18;6.45;;;15.00;48.00;;;;;;5064108;28;20389;-65
2021/04/19 12:33:33;;;;;;;9.02;5.88;;;15.00;48.60;;;;;;5064376;28;20037;-65
2021/04/19 12:36:01;;;;;;;7.63;6.30;;;14.90;49.00;;;;;;5065243;28;20574;-65
2021/04/19 12:38:29;;;;;;;16.17;5.63;;;15.00;48.30;;;;;;5064526;28;20059;-65
2021/04/19 12:40:59;;;;;;;7.22;6.03;;;15.00;49.20;;;;;;5057026;28;20041;-64
2021/04/19 12:43:27;;;;;;;9.13;6.38;;;15.00;48.00;;;;;;5063295;28;20025;-65
2021/04/19 12:45:57;;;;;;;7.22;5.20;;;15.10;48.80;;;;;;5062169;28;20037;-65
2021/04/19 12:48:25;;;;;;;6.85;5.93;;;15.20;49.00;;;;;;5061401;28;20476;-65
2021/04/19 12:50:50;;;;;;;7.68;5.80;;;15.20;49.00;;;;;;5065399;28;20044;-64
2021/04/19 12:53:16;;;;;;;7.13;5.25;;;15.20;49.00;;;;;;5064216;28;20040;-65
2021/04/19 12:55:44;;;;;;;6.97;5.22;;;15.30;49.00;;;;;;5064480;28;20567;-65
2021/04/19 12:58:15;;;;;;;6.00;5.40;;;15.40;48.50;;;;;;5064343;28;20045;-65
2021/04/19 13:00:41;;;;;;;7.20;5.63;;;15.50;48.20;;;;;;5064714;28;20044;-65
2021/04/19 13:03:10;;;;;;;7.20;5.20;;;15.50;48.40;;;;;;5064185;28;20044;-65